Time;durP1;ratioP1;P1;durP2;ratioP2;P2;SDS_P1;SDS_P2;PMS_P1;PMS_P2;Temp;Humidity;BMP_temperature;BMP_pressure;BME280_temperature;BME280_humidity;BME280_pressure;Samples;Min_cycle;Max_cycle;Signal;HPM_P1;HPM_P2
2023/12/21 00:01:11;;;;;;;18.80;11.63;;;;;;;14.12;55.44;95966.78;5036092;28;20079;-24
2023/12/21 00:03:37;;;;;;;18.65;12.88;;;;;;;14.08;55.50;95966.97;5036918;28;20411;-24
2023/12/21 00:06:02;;;;;;;19.95;13.77;;;;;;;14.15;55.54;95969.34;5043108;28;20018;-24
2023/12/21 00:08:28;;;;;;;20.90;14.40;;;;;;;14.09;55.62;95971.19;5043357;28;20484;-24
2023/12/21 00:10:53;;;;;;;18.45;14.00;;;;;;;14.21;55.28;95970.25;5044552;28;20068;-24
2023/12/21 00:13:19;;;;;;;18.58;14.07;;;;;;;14.25;55.33;95964.59;5036363;28;20022;-24
2023/12/21 00:15:44;;;;;;;20.23;14.52;;;;;;;14.11;55.59;95968.00;5036025;28;20116;-24
2023/12/21 00:18:10;;;;;;;19.92;14.50;;;;;;;14.07;55.88;95972.88;5043308;28;20017;-24
2023/12/21 00:20:35;;;;;;;20.98;15.55;;;;;;;14.16;55.53;95972.81;5041186;28;20056;-24
2023/12/21 00:23:02;;;;;;;19.63;14.88;;;;;;;14.05;55.90;95980.75;5038418;28;20025;-24
2023/12/21 00:25:27;;;;;;;20.67;14.30;;;;;;;14.07;55.82;95979.09;5025173;28;20018;-24
2023/12/21 00:27:54;;;;;;;20.90;14.63;;;;;;;14.07;55.20;95989.22;5043362;28;20082;-24
2023/12/21 00:30:20;;;;;;;22.38;14.43;;;;;;;14.05;55.38;95978.03;5036587;28;20016;-24
2023/12/21 00:32:45;;;;;;;19.60;14.68;;;;;;;14.03;55.30;95976.50;5035411;28;20036;-24
2023/12/21 00:35:11;;;;;;;20.10;13.80;;;;;;;14.14;55.03;95977.97;5042898;28;20029;-24
2023/12/21 00:37:37;;;;;;;19.75;14.40;;;;;;;14.12;55.05;95981.16;5035464;28;20017;-24
2023/12/21 00:40:06;;;;;;;20.08;13.30;;;;;;;14.14;54.76;95984.19;5035318;28;20025;-24
2023/12/21 00:42:36;;;;;;;18.35;12.90;;;;;;;14.08;55.12;95988.00;5035311;28;20029;-24
2023/12/21 00:45:03;;;;;;;17.05;12.93;;;;;;;14.21;54.68;95994.78;5042783;28;20397;-24
2023/12/21 00:47:29;;;;;;;17.23;12.90;;;;;;;13.96;55.25;95995.16;5050734;28;20021;-24
2023/12/21 00:49:55;;;;;;;17.27;13.00;;;;;;;14.14;54.44;95988.88;5035606;28;20049;-24
2023/12/21 00:52:20;;;;;;;18.95;13.38;;;;;;;14.07;55.15;95984.53;5043279;28;20028;-24
2023/12/21 00:54:46;;;;;;;19.40;12.93;;;;;;;14.01;54.96;95991.81;5036131;28;20036;-24
2023/12/21 00:57:11;;;;;;;19.25;12.75;;;;;;;14.05;54.96;95986.97;5040356;28;20024;-24
2023/12/21 00:59:37;;;;;;;15.90;12.45;;;;;;;14.21;54.39;95988.59;5037708;28;20029;-24
2023/12/21 01:02:02;;;;;;;20.38;12.95;;;;;;;13.97;55.15;95988.50;5041391;28;20024;-24
2023/12/21 01:04:28;;;;;;;18.58;12.88;;;;;;;14.09;54.79;95987.56;5035562;28;20052;-24
2023/12/21 01:06:53;;;;;;;15.85;12.25;;;;;;;14.09;54.57;95987.56;5024655;28;20017;-24
2023/12/21 01:09:18;;;;;;;14.75;11.57;;;;;;;14.05;54.56;95984.22;5040365;28;20351;-24
2023/12/21 01:11:44;;;;;;;19.10;12.05;;;;;;;14.08;54.32;95975.13;5044853;28;20029;-24
2023/12/21 01:14:09;;;;;;;13.88;9.98;;;;;;;13.92;54.60;95968.06;5041541;28;20021;-24
2023/12/21 01:16:35;;;;;;;13.90;9.77;;;;;;;14.09;54.18;95965.75;5034634;28;20048;-24
2023/12/21 01:19:00;;;;;;;12.48;8.88;;;;;;;14.11;54.02;95963.28;5035286;28;20029;-24
2023/12/21 01:21:26;;;;;;;14.50;9.23;;;;;;;13.96;54.29;95959.72;5034625;28;20021;-24
2023/12/21 01:23:51;;;;;;;16.42;9.82;;;;;;;14.04;54.27;95958.19;5035173;28;20048;-23
2023/12/21 01:26:17;;;;;;;14.73;9.98;;;;;;;13.93;54.47;95958.69;5037176;28;20029;-24
2023/12/21 01:28:42;;;;;;;15.70;10.73;;;;;;;13.98;54.65;95955.31;5047067;28;20074;-24
2023/12/21 01:31:08;;;;;;;17.85;11.52;;;;;;;13.97;54.51;95959.25;5035175;28;20363;-24
2023/12/21 01:33:34;;;;;;;22.83;12.32;;;;;;;14.10;54.16;95967.22;5036209;28;20123;-24
2023/12/21 01:35:59;;;;;;;19.58;12.98;;;;;;;14.01;54.46;95964.53;5038193;28;20029;-24
2023/12/21 01:38:25;;;;;;;19.90;13.90;;;;;;;13.99;54.12;95959.53;5035057;28;20394;-24
2023/12/21 01:40:50;;;;;;;20.35;12.70;;;;;;;13.97;54.41;95967.44;5041245;28;20032;-24
2023/12/21 01:43:16;;;;;;;21.20;12.85;;;;;;;13.91;54.31;95963.81;5041377;28;20032;-24
2023/12/21 01:45:41;;;;;;;18.88;12.18;;;;;;;13.98;54.19;95960.75;5038203;28;20032;-24
2023/12/21 01:48:09;;;;;;;20.63;13.15;;;;;;;14.03;54.00;95957.44;5038973;28;20060;-24
2023/12/21 01:50:34;;;;;;;17.38;12.50;;;;;;;13.96;54.34;95957.75;5037118;28;20028;-24
2023/12/21 01:53:01;;;;;;;18.02;12.90;;;;;;;14.01;54.03;95951.66;5044660;28;20016;-24
2023/12/21 01:55:27;;;;;;;19.52;13.20;;;;;;;14.00;54.34;95960.31;5036710;28;20116;-24
2023/12/21 01:57:53;;;;;;;19.45;12.85;;;;;;;14.03;54.27;95954.69;5034808;28;20032;-24
2023/12/21 02:00:19;;;;;;;19.00;12.43;;;;;;;14.07;53.95;95956.50;5034489;28;20025;-24
2023/12/21 02:02:45;;;;;;;19.60;13.57;;;;;;;14.06;53.80;95955.75;5034568;28;20025;-24
2023/12/21 02:05:10;;;;;;;17.90;12.32;;;;;;;14.01;54.06;95951.66;5034789;28;20051;-24
2023/12/21 02:07:36;;;;;;;15.98;11.55;;;;;;;14.03;54.07;95956.66;5040992;28;20052;-24
2023/12/21 02:10:02;;;;;;;17.60;12.30;;;;;;;13.97;54.07;95956.53;5034427;28;20079;-24
2023/12/21 02:12:27;;;;;;;15.20;11.55;;;;;;;13.86;54.19;95955.50;5033978;28;20063;-24
2023/12/21 02:14:53;;;;;;;16.25;10.30;;;;;;;13.94;54.11;95957.47;5034601;28;20060;-24
2023/12/21 02:17:20;;;;;;;14.52;11.10;;;;;;;13.83;54.35;95949.03;5034495;28;20025;-23
2023/12/21 02:19:48;;;;;;;15.55;10.40;;;;;;;14.01;54.10;95953.63;5045223;28;20025;-24
2023/12/21 02:22:15;;;;;;;15.20;10.32;;;;;;;13.89;54.23;95949.91;5047610;28;20436;-24
2023/12/21 02:24:41;;;;;;;13.68;10.18;;;;;;;13.95;54.22;95956.25;5027355;28;20394;-24
2023/12/21 02:27:07;;;;;;;15.73;10.23;;;;;;;14.01;53.96;95948.94;5040283;28;20017;-24
2023/12/21 02:29:32;;;;;;;15.35;10.68;;;;;;;14.02;53.75;95939.56;5044277;28;20033;-24
2023/12/21 02:31:58;;;;;;;12.85;9.73;;;;;;;14.10;53.57;95933.75;5050064;28;20032;-24
2023/12/21 02:34:23;;;;;;;13.43;10.38;;;;;;;14.02;53.62;95933.34;5045520;28;20024;-24
2023/12/21 02:36:49;;;;;;;12.48;8.93;;;;;;;13.89;53.87;95930.81;5044820;28;20076;-24
2023/12/21 02:39:14;;;;;;;14.13;9.40;;;;;;;14.02;53.77;95922.44;5038422;28;20033;-24
2023/12/21 02:41:40;;;;;;;15.45;9.73;;;;;;;14.14;53.30;95920.72;5038034;28;20029;-24
2023/12/21 02:44:05;;;;;;;12.70;9.10;;;;;;;14.05;53.74;95926.97;5038227;28;20423;-24
2023/12/21 02:46:31;;;;;;;12.95;9.90;;;;;;;13.94;53.87;95935.66;5046085;28;20032;-23
2023/12/21 02:48:57;;;;;;;14.40;10.05;;;;;;;13.97;53.82;95933.97;5042264;28;20053;-24
2023/12/21 02:51:23;;;;;;;11.70;8.77;;;;;;;13.98;53.65;95941.69;5039984;28;20371;-24
2023/12/21 02:53:48;;;;;;;12.95;9.27;;;;;;;13.91;53.83;95944.00;5037982;28;20025;-24
2023/12/21 02:56:14;;;;;;;14.32;10.20;;;;;;;13.93;53.71;95939.59;5037275;28;20021;-24
2023/12/21 02:58:40;;;;;;;13.27;9.93;;;;;;;14.07;53.47;95929.25;5038399;28;20056;-24
2023/12/21 03:01:05;;;;;;;12.23;9.38;;;;;;;14.04;53.32;95917.28;5037857;28;20029;-24
2023/12/21 03:03:30;;;;;;;13.50;9.05;;;;;;;13.92;53.67;95921.72;5044598;28;20022;-24
2023/12/21 03:05:56;;;;;;;13.23;9.02;;;;;;;13.84;53.84;95919.78;5051086;28;20429;-24
2023/12/21 03:08:23;;;;;;;13.13;9.57;;;;;;;13.99;53.43;95920.63;5037774;28;20063;-24
2023/12/21 03:10:48;;;;;;;13.63;9.52;;;;;;;14.00;53.14;95913.97;5045212;28;20037;-24
2023/12/21 03:13:14;;;;;;;13.05;9.20;;;;;;;14.06;53.04;95914.84;5037662;28;20018;-24
2023/12/21 03:15:39;;;;;;;14.35;9.23;;;;;;;13.97;53.13;95921.09;5043585;28;20393;-24
2023/12/21 03:18:05;;;;;;;13.43;9.00;;;;;;;13.86;53.46;95911.88;5039730;28;20036;-24
2023/12/21 03:20:30;;;;;;;14.60;8.77;;;;;;;13.77;52.95;95906.47;5041805;28;20024;-24
2023/12/21 03:22:56;;;;;;;12.52;9.13;;;;;;;13.75;53.24;95906.94;5037574;28;20049;-24
2023/12/21 03:25:21;;;;;;;14.85;8.65;;;;;;;13.86;52.68;95899.00;5037499;28;20018;-24
2023/12/21 03:27:47;;;;;;;12.10;9.25;;;;;;;13.85;53.09;95899.47;5032765;28;20127;-24
2023/12/21 03:30:13;;;;;;;13.25;8.63;;;;;;;13.81;53.15;95891.47;5043465;28;20022;-24
2023/12/21 03:32:38;;;;;;;11.52;8.98;;;;;;;13.75;53.05;95887.84;5043528;28;20132;-24
2023/12/21 03:35:05;;;;;;;13.27;9.45;;;;;;;13.75;52.66;95881.66;5036959;28;20442;-24
2023/12/21 03:37:31;;;;;;;12.68;9.05;;;;;;;13.84;52.95;95885.13;5036210;28;20052;-24
2023/12/21 03:39:56;;;;;;;11.88;9.27;;;;;;;13.94;52.47;95883.84;5037172;28;20107;-24
2023/12/21 03:42:22;;;;;;;13.45;8.98;;;;;;;13.89;52.58;95889.16;5019395;28;20402;-24
2023/12/21 03:44:48;;;;;;;10.95;8.73;;;;;;;13.88;52.47;95891.13;5040421;28;20029;-24
2023/12/21 03:47:13;;;;;;;11.15;7.88;;;;;;;13.73;52.99;95903.91;5047320;28;20026;-24
2023/12/21 03:49:39;;;;;;;13.02;8.45;;;;;;;13.81;52.75;95918.72;5037259;28;20075;-24
2023/12/21 03:52:05;;;;;;;11.73;8.07;;;;;;;13.77;52.58;95923.59;5044318;28;20391;-24
2023/12/21 03:54:31;;;;;;;11.55;8.15;;;;;;;13.73;52.64;95928.44;5037540;28;20056;-23
2023/12/21 03:56:56;;;;;;;13.52;7.85;;;;;;;13.84;52.07;95922.53;5036047;28;20048;-24
2023/12/21 03:59:22;;;;;;;11.65;8.02;;;;;;;13.76;52.21;95916.63;5043625;28;20017;-24
2023/12/21 04:01:47;;;;;;;10.95;7.10;;;;;;;13.80;51.77;95917.22;5043885;28;20398;-24
2023/12/21 04:04:12;;;;;;;12.15;8.07;;;;;;;13.79;51.75;95917.69;5036491;28;20017;-24
2023/12/21 04:06:38;;;;;;;11.10;7.15;;;;;;;13.74;51.72;95915.56;5037180;28;20029;-24
2023/12/21 04:09:03;;;;;;;11.95;7.20;;;;;;;13.88;51.25;95918.41;5039523;28;20021;-24
2023/12/21 04:11:29;;;;;;;10.07;7.07;;;;;;;13.97;51.14;95921.09;5046109;28;20017;-23
2023/12/21 04:13:54;;;;;;;10.38;6.43;;;;;;;13.86;51.14;95920.81;5038518;28;20052;-24
2023/12/21 04:16:20;;;;;;;8.60;6.43;;;;;;;13.90;51.08;95928.84;5042424;28;20120;-24
2023/12/21 04:18:45;;;;;;;9.57;6.90;;;;;;;13.76;51.21;95927.53;5036148;28;20101;-24
2023/12/21 04:21:11;;;;;;;11.18;6.90;;;;;;;13.65;51.27;95936.19;5036392;28;20028;-24
2023/12/21 04:23:39;;;;;;;9.02;6.65;;;;;;;13.82;50.80;95933.88;5036154;28;20025;-24
2023/12/21 04:26:05;;;;;;;9.60;6.60;;;;;;;13.85;50.91;95924.75;5043604;28;20443;-24
2023/12/21 04:28:30;;;;;;;9.25;6.45;;;;;;;13.73;51.18;95931.16;5035765;28;20049;-24
2023/12/21 04:30:55;;;;;;;9.55;6.00;;;;;;;13.89;50.93;95930.81;5035549;28;20025;-24
2023/12/21 04:33:21;;;;;;;9.00;5.88;;;;;;;13.80;51.07;95925.41;5035479;28;20111;-24
2023/12/21 04:35:47;;;;;;;9.57;6.07;;;;;;;13.88;50.69;95929.31;5035392;28;20052;-24
2023/12/21 04:38:13;;;;;;;7.82;5.90;;;;;;;13.81;50.73;95918.72;5035590;28;20018;-24
2023/12/21 04:40:38;;;;;;;9.07;6.50;;;;;;;13.75;50.84;95920.56;5038636;28;20021;-24
2023/12/21 04:43:05;;;;;;;8.85;6.15;;;;;;;13.88;50.22;95934.75;5039082;28;20489;-24
2023/12/21 04:45:31;;;;;;;8.60;6.13;;;;;;;13.95;49.68;95929.00;5042613;28;20025;-24
2023/12/21 04:47:56;;;;;;;8.98;6.10;;;;;;;13.88;49.76;95926.56;5035815;28;20024;-24
2023/12/21 04:50:22;;;;;;;10.70;6.68;;;;;;;13.72;50.18;95926.19;5036383;28;20041;-24
2023/12/21 04:52:47;;;;;;;8.40;6.47;;;;;;;13.83;49.79;95929.94;5035797;28;20033;-24
2023/12/21 04:55:16;;;;;;;8.48;6.32;;;;;;;13.89;49.64;95940.97;5042524;28;20060;-24
2023/12/21 04:57:41;;;;;;;8.13;5.93;;;;;;;13.72;49.63;95940.56;5042534;28;20017;-24
2023/12/21 05:00:07;;;;;;;8.25;5.82;;;;;;;13.78;49.60;95940.69;5035521;28;20395;-24
2023/12/21 05:02:33;;;;;;;11.18;6.43;;;;;;;13.77;49.56;95948.13;5035302;28;20029;-23
2023/12/21 05:04:59;;;;;;;7.90;5.65;;;;;;;13.81;49.42;95951.44;5035526;28;20029;-24
2023/12/21 05:07:25;;;;;;;8.88;6.10;;;;;;;13.75;49.60;95956.00;5040821;28;20028;-24
2023/12/21 05:09:51;;;;;;;10.43;5.90;;;;;;;13.81;49.11;95961.59;5045200;28;20021;-24
2023/12/21 05:12:17;;;;;;;8.75;5.90;;;;;;;13.83;49.13;95964.63;5041284;28;20071;-24
2023/12/21 05:14:42;;;;;;;12.88;7.53;;;;;;;13.70;49.30;95981.16;5035083;28;20021;-24
2023/12/21 05:17:08;;;;;;;8.07;5.72;;;;;;;13.70;49.42;95985.84;5042415;28;20187;-24
2023/12/21 05:19:33;;;;;;;7.57;5.03;;;;;;;13.64;49.92;95991.13;5019820;28;20018;-24
2023/12/21 05:21:59;;;;;;;7.90;5.80;;;;;;;13.73;49.00;95988.38;5032023;28;20466;-24
2023/12/21 05:24:24;;;;;;;10.30;5.88;;;;;;;13.78;49.37;95990.50;5041550;28;20025;-24
2023/12/21 05:26:50;;;;;;;11.68;6.47;;;;;;;13.69;49.59;96004.16;5023332;28;20025;-24
2023/12/21 05:29:15;;;;;;;9.48;6.15;;;;;;;13.76;48.82;96001.09;5042972;28;20051;-24
2023/12/21 05:31:42;;;;;;;6.63;5.40;;;;;;;13.83;48.51;96008.97;5035070;28;20025;-24
2023/12/21 05:34:07;;;;;;;9.95;5.97;;;;;;;13.77;48.38;96015.50;5034941;28;20025;-24
2023/12/21 05:36:33;;;;;;;7.90;5.80;;;;;;;13.74;48.04;96017.16;5037989;28;20021;-24
2023/12/21 05:39:00;;;;;;;8.65;5.72;;;;;;;13.82;47.33;96021.09;5038256;28;20032;-24
2023/12/21 05:41:26;;;;;;;8.07;5.22;;;;;;;13.74;47.47;96019.88;5042069;28;20036;-24
2023/12/21 05:43:51;;;;;;;7.80;5.28;;;;;;;13.69;47.16;96017.03;5034216;28;20083;-24
2023/12/21 05:46:17;;;;;;;8.60;5.07;;;;;;;13.63;47.14;96008.69;5017584;28;20108;-24
2023/12/21 05:48:42;;;;;;;7.40;5.07;;;;;;;13.84;46.81;96015.19;5033950;28;20041;-24
2023/12/21 05:51:08;;;;;;;26.42;13.75;;;;;;;13.76;47.06;96014.72;5047603;28;20032;-24
2023/12/21 05:53:33;;;;;;;36.88;18.20;;;;;;;13.76;47.17;96014.72;5042722;28;20027;-24
2023/12/21 05:55:59;;;;;;;28.55;14.55;;;;;;;13.71;46.74;96012.63;5034031;28;20045;-24
2023/12/21 05:58:25;;;;;;;15.65;10.05;;;;;;;13.70;46.72;96018.53;5034736;28;20026;-24
2023/12/21 06:00:50;;;;;;;12.38;7.82;;;;;;;13.58;47.04;96015.53;5034375;28;20059;-24
2023/12/21 06:03:16;;;;;;;10.75;6.28;;;;;;;13.74;47.15;96016.41;5034631;28;20030;-24
2023/12/21 06:05:41;;;;;;;9.23;6.25;;;;;;;13.69;47.09;96023.22;5034648;28;20017;-24
2023/12/21 06:08:07;;;;;;;14.13;6.25;;;;;;;13.72;47.17;96025.06;5041312;28;20429;-24
2023/12/21 06:10:33;;;;;;;10.55;5.72;;;;;;;13.69;47.25;96020.50;5034028;28;20425;-24
2023/12/21 06:12:59;;;;;;;11.48;6.10;;;;;;;13.63;47.33;96016.88;5035186;28;20115;-24
2023/12/21 06:15:25;;;;;;;12.20;6.13;;;;;;;13.57;47.19;96011.28;5033709;28;20521;-24
2023/12/21 06:17:50;;;;;;;12.40;6.13;;;;;;;13.61;47.22;96009.16;5034908;28;20108;-24
2023/12/21 06:20:15;;;;;;;11.95;6.60;;;;;;;13.52;47.53;96011.13;5041099;28;20095;-24
2023/12/21 06:22:41;;;;;;;12.48;6.18;;;;;;;13.69;47.27;96009.59;5029228;28;20548;-24
2023/12/21 06:25:07;;;;;;;15.68;6.45;;;;;;;13.76;47.16;96003.84;5035249;28;20025;-24
2023/12/21 06:27:32;;;;;;;12.13;6.50;;;;;;;13.59;47.58;96008.13;5038966;28;20035;-24
2023/12/21 06:29:58;;;;;;;13.27;7.13;;;;;;;13.56;47.42;95998.88;5036598;28;20029;-24
2023/12/21 06:32:24;;;;;;;12.50;6.70;;;;;;;13.61;47.10;95997.50;5034227;28;20021;-24
2023/12/21 06:34:50;;;;;;;11.88;6.57;;;;;;;13.60;46.70;95995.97;5034243;28;20021;-24
2023/12/21 06:37:16;;;;;;;13.25;8.80;;;;;;;13.61;46.51;95995.53;5041826;28;20025;-24
2023/12/21 06:39:41;;;;;;;13.52;7.82;;;;;;;13.51;46.69;95994.03;5033991;28;20025;-24
2023/12/21 06:42:06;;;;;;;9.65;7.13;;;;;;;13.61;46.11;96003.69;5033469;28;20383;-24
2023/12/21 06:44:32;;;;;;;11.50;7.72;;;;;;;13.55;46.16;96007.50;5034276;28;20025;-24
2023/12/21 06:46:58;;;;;;;13.13;7.05;;;;;;;13.47;45.97;96009.78;5041182;28;20025;-24
2023/12/21 06:49:23;;;;;;;16.15;7.45;;;;;;;13.56;45.84;96003.56;5040849;28;20037;-24
2023/12/21 06:51:49;;;;;;;10.88;7.05;;;;;;;13.60;45.38;96001.44;5041502;28;20475;-24
2023/12/21 06:54:14;;;;;;;9.98;6.60;;;;;;;13.75;45.13;96004.28;5034254;28;20104;-24
2023/12/21 06:56:40;;;;;;;8.20;6.15;;;;;;;13.58;45.26;96012.81;5034006;28;20079;-24
2023/12/21 06:59:07;;;;;;;10.68;5.80;;;;;;;13.58;45.28;96015.53;5033988;28;20045;-24
2023/12/21 07:01:32;;;;;;;8.98;6.05;;;;;;;13.61;44.83;96027.47;5033612;28;20024;-24
2023/12/21 07:03:58;;;;;;;7.45;5.35;;;;;;;13.42;45.13;96024.00;5042732;28;20063;-24
2023/12/21 07:06:27;;;;;;;9.43;6.03;;;;;;;13.65;44.23;96026.09;5037153;28;20067;-24
2023/12/21 07:08:53;;;;;;;9.27;6.05;;;;;;;13.55;44.82;96032.03;5040067;28;20529;-24
2023/12/21 07:11:19;;;;;;;8.57;5.53;;;;;;;13.58;44.64;96028.41;5042756;28;20036;-24
2023/12/21 07:13:47;;;;;;;8.18;5.20;;;;;;;13.62;44.05;96037.16;5037426;28;20025;-24
2023/12/21 07:16:13;;;;;;;8.05;5.63;;;;;;;13.56;44.26;96041.72;5044650;28;20415;-24
2023/12/21 07:18:38;;;;;;;9.32;5.25;;;;;;;13.62;44.19;96040.63;5043563;28;20056;-24
2023/12/21 07:21:05;;;;;;;8.52;5.53;;;;;;;13.56;44.40;96047.16;5037622;28;20080;-24
2023/12/21 07:23:30;;;;;;;7.97;5.55;;;;;;;13.61;44.14;96057.44;5037461;28;20021;-24
2023/12/21 07:25:56;;;;;;;8.65;5.10;;;;;;;13.57;44.05;96051.41;5037217;28;20021;-24
2023/12/21 07:28:22;;;;;;;9.52;5.60;;;;;;;13.64;44.49;96056.53;5047232;28;20031;-24
2023/12/21 07:30:47;;;;;;;9.40;5.75;;;;;;;13.60;44.14;96055.91;5041593;28;20021;-24
2023/12/21 07:33:13;;;;;;;11.73;5.38;;;;;;;13.73;44.53;96059.25;5044470;28;20433;-24
2023/12/21 07:35:38;;;;;;;7.53;5.30;;;;;;;13.61;43.86;96066.38;5037066;28;20021;-24
2023/12/21 07:38:05;;;;;;;9.38;5.57;;;;;;;13.50;44.15;96068.78;5036872;28;20032;-24
2023/12/21 07:40:31;;;;;;;9.32;5.10;;;;;;;13.57;43.69;96056.84;5036959;28;20025;-24
2023/12/21 07:42:56;;;;;;;7.88;5.32;;;;;;;13.70;44.01;96060.19;5036634;28;20028;-24
2023/12/21 07:45:21;;;;;;;7.68;5.13;;;;;;;13.66;44.35;96059.56;5044270;28;20025;-24
2023/12/21 07:47:48;;;;;;;7.20;4.47;;;;;;;13.74;43.76;96052.59;5035819;28;20025;-24
2023/12/21 07:50:13;;;;;;;9.88;4.93;;;;;;;13.75;43.48;96056.06;5036900;28;20045;-24
2023/12/21 07:52:39;;;;;;;8.20;5.00;;;;;;;13.65;43.57;96058.03;5044455;28;20516;-24
2023/12/21 07:55:06;;;;;;;7.10;4.45;;;;;;;13.64;44.10;96064.72;5036657;28;20033;-24
2023/12/21 07:57:31;;;;;;;8.48;4.97;;;;;;;13.69;43.98;96064.09;5032999;28;20554;-23
2023/12/21 07:59:57;;;;;;;8.43;5.15;;;;;;;13.70;44.17;96073.81;5043812;28;20101;-24
2023/12/21 08:02:22;;;;;;;8.45;4.40;;;;;;;13.70;44.34;96084.69;5036066;28;20101;-24
2023/12/21 08:04:47;;;;;;;8.32;4.72;;;;;;;13.74;44.13;96077.09;5037423;28;20032;-24
2023/12/21 08:07:13;;;;;;;7.57;4.10;;;;;;;13.64;44.22;96089.22;5036020;28;20068;-24
2023/12/21 08:09:38;;;;;;;6.63;3.90;;;;;;;13.68;44.38;96081.66;5036109;28;20367;-24
2023/12/21 08:12:04;;;;;;;5.60;3.80;;;;;;;13.59;44.41;96089.84;5043413;28;20025;-24
2023/12/21 08:14:35;;;;;;;7.20;4.03;;;;;;;13.74;44.05;96089.97;5035944;28;20022;-24
2023/12/21 08:17:03;;;;;;;7.15;4.28;;;;;;;13.81;43.58;96086.97;5036103;28;20467;-24
2023/12/21 08:19:28;;;;;;;6.00;4.15;;;;;;;13.70;43.68;96094.84;5035837;28;20048;-24
2023/12/21 08:21:53;;;;;;;6.85;4.25;;;;;;;13.66;43.43;96084.09;5036387;28;20463;-23
2023/12/21 08:24:19;;;;;;;6.40;4.00;;;;;;;13.73;43.39;96083.00;5038703;28;20017;-24
2023/12/21 08:26:44;;;;;;;6.13;4.00;;;;;;;13.77;43.35;96078.94;5039964;28;20036;-24
2023/12/21 08:29:10;;;;;;;5.78;3.80;;;;;;;13.68;43.84;96078.94;5036275;28;20418;-24
2023/12/21 08:31:35;;;;;;;6.25;3.50;;;;;;;13.64;44.29;96070.16;5036117;28;20021;-24
2023/12/21 08:34:02;;;;;;;5.45;3.63;;;;;;;13.80;43.39;96075.31;5043539;28;20021;-24
2023/12/21 08:36:27;;;;;;;6.10;3.72;;;;;;;13.60;43.62;96073.03;5043129;28;20028;-24
2023/12/21 08:38:52;;;;;;;6.18;3.90;;;;;;;13.82;43.39;96072.88;5042692;28;20017;-24
2023/12/21 08:41:18;;;;;;;6.28;3.50;;;;;;;13.74;43.41;96077.09;5043653;28;20385;-24
2023/12/21 08:43:45;;;;;;;9.48;4.18;;;;;;;13.74;44.30;96073.63;5035225;28;20021;-24
2023/12/21 08:46:10;;;;;;;7.30;5.03;;;;;;;13.92;44.62;96074.38;5035202;28;20021;-24
2023/12/21 08:48:36;;;;;;;8.77;5.47;;;;;;;13.98;45.42;96072.53;5035657;28;20395;-24
2023/12/21 08:51:01;;;;;;;8.43;5.55;;;;;;;13.80;46.59;96075.31;5040769;28;20078;-24
2023/12/21 08:53:27;;;;;;;10.45;6.00;;;;;;;13.91;46.75;96069.38;5037398;28;20021;-24
2023/12/21 08:55:52;;;;;;;9.23;6.30;;;;;;;14.11;46.25;96082.50;5042319;28;20057;-24
2023/12/21 08:58:18;;;;;;;12.98;6.30;;;;;;;14.22;46.30;96086.28;5035636;28;20029;-24
2023/12/21 09:00:44;;;;;;;10.18;6.22;;;;;;;16.00;42.18;96102.34;5036080;28;20032;-24
2023/12/21 09:03:10;;;;;;;10.18;6.00;;;;;;;20.04;34.17;96102.94;5035707;28;20025;-24
2023/12/21 09:05:35;;;;;;;9.90;6.38;;;;;;;22.68;29.72;96098.31;5035723;28;20482;-24
2023/12/21 09:08:00;;;;;;;9.18;7.03;;;;;;;23.09;28.71;96099.00;5042408;28;20033;-24
2023/12/21 09:10:26;;;;;;;11.52;7.45;;;;;;;23.82;27.16;96107.28;5042566;28;20030;-23
2023/12/21 09:12:52;;;;;;;9.55;7.05;;;;;;;24.19;27.06;96100.25;5036047;28;20017;-24
2023/12/21 09:15:18;;;;;;;13.48;8.60;;;;;;;23.76;27.59;96108.63;5034960;28;20021;-24
2023/12/21 09:17:43;;;;;;;13.63;9.00;;;;;;;23.73;27.96;96121.50;5035275;28;20031;-24
2023/12/21 09:20:13;;;;;;;13.15;9.55;;;;;;;25.08;26.14;96137.78;5036929;28;20104;-24
2023/12/21 09:22:39;;;;;;;12.88;9.32;;;;;;;26.61;23.87;96135.78;5039521;28;20029;-24
2023/12/21 09:25:05;;;;;;;14.32;9.05;;;;;;;26.65;24.10;96136.19;5041925;28;20072;-25
2023/12/21 09:27:32;;;;;;;14.38;8.82;;;;;;;26.83;23.04;96129.69;5035110;28;20024;-24
2023/12/21 09:29:57;;;;;;;11.80;8.32;;;;;;;27.98;21.81;96133.34;5034547;28;20051;-25
2023/12/21 09:32:23;;;;;;;12.48;9.20;;;;;;;27.48;22.42;96130.63;5045005;28;20052;-25
2023/12/21 09:34:48;;;;;;;13.10;10.02;;;;;;;26.82;23.51;96128.22;5045918;28;20441;-25
2023/12/21 09:37:14;;;;;;;14.27;9.40;;;;;;;27.26;22.76;96116.53;5041866;28;20025;-24
2023/12/21 09:39:39;;;;;;;13.98;10.02;;;;;;;26.97;23.53;96118.53;5034778;28;20021;-25
2023/12/21 09:42:07;;;;;;;12.35;9.52;;;;;;;23.54;27.51;96112.41;5034641;28;20029;-25
2023/12/21 09:44:34;;;;;;;14.63;10.45;;;;;;;20.05;33.78;96109.19;5034567;28;20033;-25
2023/12/21 09:47:06;;;;;;;16.40;11.02;;;;;;;18.54;36.85;96102.84;5039877;28;20485;-25
2023/12/21 09:49:37;;;;;;;15.82;11.68;;;;;;;17.50;38.96;96101.97;5019111;28;20502;-25
2023/12/21 09:52:07;;;;;;;14.73;10.55;;;;;;;17.09;40.33;96101.16;5039808;28;20021;-24
2023/12/21 09:54:38;;;;;;;15.75;11.43;;;;;;;16.67;41.59;96109.00;5034830;28;20017;-25
2023/12/21 09:57:04;;;;;;;14.18;10.95;;;;;;;15.98;43.42;96102.06;5034234;28;20088;-25
2023/12/21 09:59:32;;;;;;;14.77;10.43;;;;;;;16.03;43.29;96107.63;5035146;28;20021;-25
2023/12/21 10:01:57;;;;;;;15.52;10.73;;;;;;;16.04;43.33;96090.00;5034491;28;20018;-25
2023/12/21 10:04:23;;;;;;;13.45;10.45;;;;;;;15.72;44.35;96083.44;5041049;28;20029;-24
2023/12/21 10:06:48;;;;;;;13.85;10.20;;;;;;;15.64;44.47;96087.75;5042196;28;20017;-24
2023/12/21 10:09:15;;;;;;;14.25;10.25;;;;;;;15.69;44.45;96087.13;5021517;28;20017;-25
2023/12/21 10:11:41;;;;;;;14.40;10.00;;;;;;;15.55;44.73;96082.38;5037340;28;20064;-24
2023/12/21 10:14:19;;;;;;;13.25;9.38;;;;;;;15.37;45.04;96085.19;5034005;28;20030;-24
2023/12/21 10:16:45;;;;;;;12.68;9.45;;;;;;;15.27;45.15;96081.78;5041740;28;20021;-24
2023/12/21 10:19:11;;;;;;;14.43;10.40;;;;;;;15.22;45.68;96076.94;5034091;28;20025;-25
2023/12/21 10:21:40;;;;;;;14.75;10.02;;;;;;;15.30;45.68;96075.38;5034348;28;20101;-25
2023/12/21 10:24:07;;;;;;;15.50;10.60;;;;;;;15.07;46.02;96076.13;5034281;28;20475;-25
2023/12/21 10:26:32;;;;;;;14.30;9.75;;;;;;;15.14;45.41;96073.03;5034503;28;20417;-24
2023/12/21 10:28:58;;;;;;;15.15;9.77;;;;;;;14.98;45.73;96066.00;5034214;28;20029;-24
2023/12/21 10:31:25;;;;;;;16.00;10.38;;;;;;;14.84;46.34;96058.50;5041710;28;20371;-24
2023/12/21 10:33:51;;;;;;;17.02;10.32;;;;;;;14.81;46.46;96056.72;5034079;28;20037;-24
2023/12/21 10:36:16;;;;;;;15.02;9.63;;;;;;;14.96;46.26;96048.59;5034124;28;20025;-24
2023/12/21 10:38:44;;;;;;;15.13;9.98;;;;;;;14.87;46.52;96051.34;5034510;28;20096;-24
2023/12/21 10:41:10;;;;;;;15.75;9.57;;;;;;;14.85;46.33;96051.06;5037911;28;20475;-24
2023/12/21 10:43:36;;;;;;;13.98;9.85;;;;;;;14.92;46.25;96050.72;5044734;28;20026;-24
2023/12/21 10:46:03;;;;;;;13.45;8.95;;;;;;;14.81;46.70;96039.56;5043725;28;20096;-24
2023/12/21 10:48:32;;;;;;;14.07;8.95;;;;;;;14.82;46.56;96035.63;5039023;28;20132;-24
2023/12/21 10:50:58;;;;;;;12.25;8.95;;;;;;;14.73;46.71;96023.50;5038088;28;20103;-24
2023/12/21 10:53:25;;;;;;;14.32;9.00;;;;;;;14.79;45.74;96026.38;5037916;28;20068;-24
2023/12/21 10:55:53;;;;;;;13.45;8.48;;;;;;;14.70;46.23;96021.72;5040514;28;20017;-24
2023/12/21 10:58:21;;;;;;;12.57;8.10;;;;;;;14.87;45.88;96016.63;5041644;28;20022;-24
2023/12/21 11:00:47;;;;;;;11.35;8.48;;;;;;;14.79;45.53;96001.06;5045291;28;21010;-24
2023/12/21 11:03:16;;;;;;;11.35;7.57;;;;;;;14.92;45.61;95999.59;5037737;28;20426;-24
2023/12/21 11:05:44;;;;;;;12.90;8.88;;;;;;;14.81;45.56;95999.38;5038289;28;20018;-24
2023/12/21 11:08:10;;;;;;;12.32;9.02;;;;;;;14.80;44.99;95997.09;5037741;28;20356;-24
2023/12/21 11:10:37;;;;;;;12.65;8.13;;;;;;;14.78;45.59;96002.28;5036888;28;20029;-24
2023/12/21 11:13:03;;;;;;;10.98;7.38;;;;;;;14.53;44.89;96006.94;5044907;28;20036;-24
2023/12/21 11:15:29;;;;;;;10.48;7.38;;;;;;;14.69;44.63;96012.03;5036673;28;20075;-24
2023/12/21 11:18:03;;;;;;;10.70;7.72;;;;;;;14.67;44.94;96011.72;5038123;28;20379;-24